Portlaw, Ireland
Current Conditions -  °F | °C
As of 11:00 AM on Sunday 25 Jan 2015 (Local Time) from EIWF Reporting Station
Haze Haze  
Wind Chill: 39°   Ceiling: 400
Heat Index: 46°   Visibility: 0.81mi
Dew Point: 46°   Wind: 17mph
Humidity: 100%   Direction: 230°SW
Pressure: 30.36"   Gusts: NA
Location:  52.29°N, 7.31°W
Report Text: EIWF 251000Z 23015KT 200V280 1300 BR BKN004 08/08 Q1028
Loading
Personal Weather Stations






























Interactive Weather Map New forecast layout! Learn more

10-Day Weather Forecast

Advertisements
Track Severe Weather on mobile